<?xml version="1.0" encoding="UTF-8" standalone="no" ?>
<gpx xmlns="http://www.topografix.com/GPX/1/1" xmlns:xsi="http://www.w3.org/2001/XMLSchema-instance" xsi:schemaLocation="http://www.topografix.com/GPX/1/1 http://www.topografix.com/GPX/1/1/gpx.xsd" version="1.1" creator="VisuGPX - https://www.visugpx.com">
  <metadata>
    <name>st gilles 2</name>
    <desc><![CDATA[rando du dimanche]]></desc>
  </metadata>
  <trk>
    <name><![CDATA[29 mai 2011 17:05:25]]></name>
    <cmt><![CDATA[29 mai 2011 17:05:25]]></cmt>
    <trkseg>
      <trkpt lat="48.25684" lon="-2.9672">
        <ele>219</ele>
        <time>2011-05-29T15:05:26Z</time>
      </trkpt>
      <trkpt lat="48.25678" lon="-2.96762">
        <ele>213</ele>
        <time>2011-05-29T15:07:27Z</time>
      </trkpt>
      <trkpt lat="48.25689" lon="-2.96831">
        <ele>209</ele>
        <time>2011-05-29T15:08:02Z</time>
      </trkpt>
      <trkpt lat="48.25707" lon="-2.96892">
        <ele>208</ele>
        <time>2011-05-29T15:08:38Z</time>
      </trkpt>
      <trkpt lat="48.25724" lon="-2.96936">
        <ele>209</ele>
        <time>2011-05-29T15:09:03Z</time>
      </trkpt>
      <trkpt lat="48.25763" lon="-2.96953">
        <ele>210</ele>
        <time>2011-05-29T15:09:41Z</time>
      </trkpt>
      <trkpt lat="48.25786" lon="-2.96962">
        <ele>210</ele>
        <time>2011-05-29T15:10:04Z</time>
      </trkpt>
      <trkpt lat="48.25791" lon="-2.96974">
        <ele>210</ele>
        <time>2011-05-29T15:10:13Z</time>
      </trkpt>
      <trkpt lat="48.2579" lon="-2.96989">
        <ele>210</ele>
        <time>2011-05-29T15:10:21Z</time>
      </trkpt>
      <trkpt lat="48.25779" lon="-2.97043">
        <ele>211</ele>
        <time>2011-05-29T15:10:58Z</time>
      </trkpt>
      <trkpt lat="48.25769" lon="-2.9709">
        <ele>214</ele>
        <time>2011-05-29T15:11:30Z</time>
      </trkpt>
      <trkpt lat="48.25761" lon="-2.97133">
        <ele>216</ele>
        <time>2011-05-29T15:12:01Z</time>
      </trkpt>
      <trkpt lat="48.25752" lon="-2.97176">
        <ele>218</ele>
        <time>2011-05-29T15:12:32Z</time>
      </trkpt>
      <trkpt lat="48.25743" lon="-2.97222">
        <ele>218</ele>
        <time>2011-05-29T15:13:03Z</time>
      </trkpt>
      <trkpt lat="48.25741" lon="-2.97228">
        <ele>218</ele>
        <time>2011-05-29T15:13:07Z</time>
      </trkpt>
      <trkpt lat="48.25727" lon="-2.97272">
        <ele>218</ele>
        <time>2011-05-29T15:13:38Z</time>
      </trkpt>
      <trkpt lat="48.25712" lon="-2.97323">
        <ele>219</ele>
        <time>2011-05-29T15:14:10Z</time>
      </trkpt>
      <trkpt lat="48.25699" lon="-2.9738">
        <ele>220</ele>
        <time>2011-05-29T15:14:48Z</time>
      </trkpt>
      <trkpt lat="48.25684" lon="-2.97424">
        <ele>221</ele>
        <time>2011-05-29T15:15:19Z</time>
      </trkpt>
      <trkpt lat="48.25677" lon="-2.97465">
        <ele>222</ele>
        <time>2011-05-29T15:15:36Z</time>
      </trkpt>
      <trkpt lat="48.25664" lon="-2.97515">
        <ele>226</ele>
        <time>2011-05-29T15:16:17Z</time>
      </trkpt>
      <trkpt lat="48.25651" lon="-2.97552">
        <ele>227</ele>
        <time>2011-05-29T15:16:44Z</time>
      </trkpt>
      <trkpt lat="48.25652" lon="-2.97607">
        <ele>228</ele>
        <time>2011-05-29T15:17:15Z</time>
      </trkpt>
      <trkpt lat="48.25655" lon="-2.97677">
        <ele>230</ele>
        <time>2011-05-29T15:17:52Z</time>
      </trkpt>
      <trkpt lat="48.2567" lon="-2.97742">
        <ele>232</ele>
        <time>2011-05-29T15:18:25Z</time>
      </trkpt>
      <trkpt lat="48.25681" lon="-2.978">
        <ele>234</ele>
        <time>2011-05-29T15:19:00Z</time>
      </trkpt>
      <trkpt lat="48.25692" lon="-2.97847">
        <ele>234</ele>
        <time>2011-05-29T15:19:30Z</time>
      </trkpt>
      <trkpt lat="48.25704" lon="-2.97905">
        <ele>233</ele>
        <time>2011-05-29T15:20:03Z</time>
      </trkpt>
      <trkpt lat="48.25713" lon="-2.97955">
        <ele>233</ele>
        <time>2011-05-29T15:20:34Z</time>
      </trkpt>
      <trkpt lat="48.2571" lon="-2.97961">
        <ele>233</ele>
        <time>2011-05-29T15:20:38Z</time>
      </trkpt>
      <trkpt lat="48.25706" lon="-2.97965">
        <ele>233</ele>
        <time>2011-05-29T15:20:46Z</time>
      </trkpt>
      <trkpt lat="48.25665" lon="-2.97969">
        <ele>235</ele>
        <time>2011-05-29T15:21:18Z</time>
      </trkpt>
      <trkpt lat="48.25631" lon="-2.97961">
        <ele>237</ele>
        <time>2011-05-29T15:21:51Z</time>
      </trkpt>
      <trkpt lat="48.25596" lon="-2.97955">
        <ele>239</ele>
        <time>2011-05-29T15:22:24Z</time>
      </trkpt>
      <trkpt lat="48.25561" lon="-2.97952">
        <ele>241</ele>
        <time>2011-05-29T15:22:55Z</time>
      </trkpt>
      <trkpt lat="48.25527" lon="-2.97952">
        <ele>243</ele>
        <time>2011-05-29T15:23:28Z</time>
      </trkpt>
      <trkpt lat="48.25491" lon="-2.97952">
        <ele>246</ele>
        <time>2011-05-29T15:24:00Z</time>
      </trkpt>
      <trkpt lat="48.25461" lon="-2.97947">
        <ele>250</ele>
        <time>2011-05-29T15:24:30Z</time>
      </trkpt>
      <trkpt lat="48.25425" lon="-2.97947">
        <ele>254</ele>
        <time>2011-05-29T15:25:02Z</time>
      </trkpt>
      <trkpt lat="48.25392" lon="-2.97944">
        <ele>258</ele>
        <time>2011-05-29T15:25:33Z</time>
      </trkpt>
      <trkpt lat="48.25358" lon="-2.97935">
        <ele>261</ele>
        <time>2011-05-29T15:26:06Z</time>
      </trkpt>
      <trkpt lat="48.25323" lon="-2.97931">
        <ele>263</ele>
        <time>2011-05-29T15:26:41Z</time>
      </trkpt>
      <trkpt lat="48.25283" lon="-2.97925">
        <ele>265</ele>
        <time>2011-05-29T15:27:17Z</time>
      </trkpt>
      <trkpt lat="48.25245" lon="-2.9792">
        <ele>266</ele>
        <time>2011-05-29T15:27:51Z</time>
      </trkpt>
      <trkpt lat="48.252" lon="-2.97934">
        <ele>268</ele>
        <time>2011-05-29T15:28:28Z</time>
      </trkpt>
      <trkpt lat="48.25153" lon="-2.97945">
        <ele>270</ele>
        <time>2011-05-29T15:29:04Z</time>
      </trkpt>
      <trkpt lat="48.25114" lon="-2.97959">
        <ele>272</ele>
        <time>2011-05-29T15:29:35Z</time>
      </trkpt>
      <trkpt lat="48.25103" lon="-2.97959">
        <ele>272</ele>
        <time>2011-05-29T15:29:44Z</time>
      </trkpt>
      <trkpt lat="48.25083" lon="-2.97971">
        <ele>272</ele>
        <time>2011-05-29T15:29:59Z</time>
      </trkpt>
      <trkpt lat="48.25048" lon="-2.97978">
        <ele>272</ele>
        <time>2011-05-29T15:30:30Z</time>
      </trkpt>
      <trkpt lat="48.25007" lon="-2.97968">
        <ele>271</ele>
        <time>2011-05-29T15:31:02Z</time>
      </trkpt>
      <trkpt lat="48.24969" lon="-2.97947">
        <ele>271</ele>
        <time>2011-05-29T15:31:36Z</time>
      </trkpt>
      <trkpt lat="48.24934" lon="-2.97924">
        <ele>268</ele>
        <time>2011-05-29T15:32:10Z</time>
      </trkpt>
      <trkpt lat="48.24895" lon="-2.9791">
        <ele>264</ele>
        <time>2011-05-29T15:32:42Z</time>
      </trkpt>
      <trkpt lat="48.24855" lon="-2.97893">
        <ele>260</ele>
        <time>2011-05-29T15:33:14Z</time>
      </trkpt>
      <trkpt lat="48.24818" lon="-2.97873">
        <ele>257</ele>
        <time>2011-05-29T15:33:45Z</time>
      </trkpt>
      <trkpt lat="48.24785" lon="-2.97839">
        <ele>252</ele>
        <time>2011-05-29T15:34:19Z</time>
      </trkpt>
      <trkpt lat="48.24754" lon="-2.97808">
        <ele>247</ele>
        <time>2011-05-29T15:34:50Z</time>
      </trkpt>
      <trkpt lat="48.2472" lon="-2.97767">
        <ele>243</ele>
        <time>2011-05-29T15:35:24Z</time>
      </trkpt>
      <trkpt lat="48.24687" lon="-2.97729">
        <ele>239</ele>
        <time>2011-05-29T15:35:57Z</time>
      </trkpt>
      <trkpt lat="48.24652" lon="-2.97714">
        <ele>235</ele>
        <time>2011-05-29T15:36:32Z</time>
      </trkpt>
      <trkpt lat="48.24611" lon="-2.97706">
        <ele>233</ele>
        <time>2011-05-29T15:37:09Z</time>
      </trkpt>
      <trkpt lat="48.24573" lon="-2.97698">
        <ele>231</ele>
        <time>2011-05-29T15:37:41Z</time>
      </trkpt>
      <trkpt lat="48.24533" lon="-2.977">
        <ele>228</ele>
        <time>2011-05-29T15:38:14Z</time>
      </trkpt>
      <trkpt lat="48.24495" lon="-2.97688">
        <ele>225</ele>
        <time>2011-05-29T15:38:46Z</time>
      </trkpt>
      <trkpt lat="48.24461" lon="-2.97663">
        <ele>219</ele>
        <time>2011-05-29T15:39:16Z</time>
      </trkpt>
      <trkpt lat="48.24452" lon="-2.97656">
        <ele>218</ele>
        <time>2011-05-29T15:39:25Z</time>
      </trkpt>
      <trkpt lat="48.24428" lon="-2.9761">
        <ele>213</ele>
        <time>2011-05-29T15:40:01Z</time>
      </trkpt>
      <trkpt lat="48.24411" lon="-2.97564">
        <ele>209</ele>
        <time>2011-05-29T15:40:34Z</time>
      </trkpt>
      <trkpt lat="48.24408" lon="-2.97551">
        <ele>208</ele>
        <time>2011-05-29T15:40:43Z</time>
      </trkpt>
      <trkpt lat="48.24413" lon="-2.97498">
        <ele>206</ele>
        <time>2011-05-29T15:41:18Z</time>
      </trkpt>
      <trkpt lat="48.2441" lon="-2.97493">
        <ele>205</ele>
        <time>2011-05-29T15:41:22Z</time>
      </trkpt>
      <trkpt lat="48.24377" lon="-2.97462">
        <ele>203</ele>
        <time>2011-05-29T15:41:56Z</time>
      </trkpt>
      <trkpt lat="48.24376" lon="-2.97455">
        <ele>203</ele>
        <time>2011-05-29T15:42:04Z</time>
      </trkpt>
      <trkpt lat="48.24381" lon="-2.97445">
        <ele>202</ele>
        <time>2011-05-29T15:42:09Z</time>
      </trkpt>
      <trkpt lat="48.24398" lon="-2.97409">
        <ele>199</ele>
        <time>2011-05-29T15:42:34Z</time>
      </trkpt>
      <trkpt lat="48.24398" lon="-2.97379">
        <ele>198</ele>
        <time>2011-05-29T15:42:48Z</time>
      </trkpt>
      <trkpt lat="48.24418" lon="-2.97334">
        <ele>195</ele>
        <time>2011-05-29T15:43:19Z</time>
      </trkpt>
      <trkpt lat="48.24433" lon="-2.97308">
        <ele>194</ele>
        <time>2011-05-29T15:43:38Z</time>
      </trkpt>
      <trkpt lat="48.24441" lon="-2.97314">
        <ele>193</ele>
        <time>2011-05-29T15:43:46Z</time>
      </trkpt>
      <trkpt lat="48.24445" lon="-2.97318">
        <ele>193</ele>
        <time>2011-05-29T15:43:51Z</time>
      </trkpt>
      <trkpt lat="48.24469" lon="-2.97352">
        <ele>191</ele>
        <time>2011-05-29T15:44:21Z</time>
      </trkpt>
      <trkpt lat="48.24499" lon="-2.97384">
        <ele>191</ele>
        <time>2011-05-29T15:44:54Z</time>
      </trkpt>
      <trkpt lat="48.24529" lon="-2.97411">
        <ele>191</ele>
        <time>2011-05-29T15:45:26Z</time>
      </trkpt>
      <trkpt lat="48.24566" lon="-2.97428">
        <ele>191</ele>
        <time>2011-05-29T15:45:56Z</time>
      </trkpt>
      <trkpt lat="48.24589" lon="-2.97417">
        <ele>193</ele>
        <time>2011-05-29T15:46:18Z</time>
      </trkpt>
      <trkpt lat="48.24623" lon="-2.97382">
        <ele>196</ele>
        <time>2011-05-29T15:46:51Z</time>
      </trkpt>
      <trkpt lat="48.2465" lon="-2.97339">
        <ele>199</ele>
        <time>2011-05-29T15:47:23Z</time>
      </trkpt>
      <trkpt lat="48.24681" lon="-2.97301">
        <ele>202</ele>
        <time>2011-05-29T15:47:56Z</time>
      </trkpt>
      <trkpt lat="48.24711" lon="-2.97259">
        <ele>204</ele>
        <time>2011-05-29T15:48:28Z</time>
      </trkpt>
      <trkpt lat="48.24742" lon="-2.97229">
        <ele>205</ele>
        <time>2011-05-29T15:48:58Z</time>
      </trkpt>
      <trkpt lat="48.24777" lon="-2.97197">
        <ele>206</ele>
        <time>2011-05-29T15:49:30Z</time>
      </trkpt>
      <trkpt lat="48.2481" lon="-2.97178">
        <ele>206</ele>
        <time>2011-05-29T15:50:03Z</time>
      </trkpt>
      <trkpt lat="48.24856" lon="-2.97163">
        <ele>207</ele>
        <time>2011-05-29T15:50:40Z</time>
      </trkpt>
      <trkpt lat="48.24895" lon="-2.97151">
        <ele>208</ele>
        <time>2011-05-29T15:51:11Z</time>
      </trkpt>
      <trkpt lat="48.24936" lon="-2.97147">
        <ele>211</ele>
        <time>2011-05-29T15:51:45Z</time>
      </trkpt>
      <trkpt lat="48.24973" lon="-2.97152">
        <ele>213</ele>
        <time>2011-05-29T15:52:15Z</time>
      </trkpt>
      <trkpt lat="48.25013" lon="-2.97155">
        <ele>215</ele>
        <time>2011-05-29T15:52:47Z</time>
      </trkpt>
      <trkpt lat="48.25045" lon="-2.97162">
        <ele>216</ele>
        <time>2011-05-29T15:53:15Z</time>
      </trkpt>
      <trkpt lat="48.25079" lon="-2.97125">
        <ele>217</ele>
        <time>2011-05-29T15:53:48Z</time>
      </trkpt>
      <trkpt lat="48.2511" lon="-2.97091">
        <ele>218</ele>
        <time>2011-05-29T15:54:19Z</time>
      </trkpt>
      <trkpt lat="48.2514" lon="-2.97048">
        <ele>218</ele>
        <time>2011-05-29T15:54:52Z</time>
      </trkpt>
      <trkpt lat="48.25175" lon="-2.97017">
        <ele>219</ele>
        <time>2011-05-29T15:55:25Z</time>
      </trkpt>
      <trkpt lat="48.25208" lon="-2.96976">
        <ele>219</ele>
        <time>2011-05-29T15:55:58Z</time>
      </trkpt>
      <trkpt lat="48.2524" lon="-2.96943">
        <ele>218</ele>
        <time>2011-05-29T15:56:30Z</time>
      </trkpt>
      <trkpt lat="48.25269" lon="-2.96894">
        <ele>216</ele>
        <time>2011-05-29T15:57:06Z</time>
      </trkpt>
      <trkpt lat="48.25301" lon="-2.96845">
        <ele>216</ele>
        <time>2011-05-29T15:57:40Z</time>
      </trkpt>
      <trkpt lat="48.25332" lon="-2.96808">
        <ele>215</ele>
        <time>2011-05-29T15:58:10Z</time>
      </trkpt>
      <trkpt lat="48.25369" lon="-2.96767">
        <ele>214</ele>
        <time>2011-05-29T15:58:46Z</time>
      </trkpt>
      <trkpt lat="48.25402" lon="-2.96736">
        <ele>213</ele>
        <time>2011-05-29T15:59:19Z</time>
      </trkpt>
      <trkpt lat="48.25429" lon="-2.96694">
        <ele>212</ele>
        <time>2011-05-29T15:59:51Z</time>
      </trkpt>
      <trkpt lat="48.25462" lon="-2.96662">
        <ele>211</ele>
        <time>2011-05-29T16:00:24Z</time>
      </trkpt>
      <trkpt lat="48.25493" lon="-2.96616">
        <ele>212</ele>
        <time>2011-05-29T16:00:59Z</time>
      </trkpt>
      <trkpt lat="48.25523" lon="-2.96571">
        <ele>212</ele>
        <time>2011-05-29T16:01:32Z</time>
      </trkpt>
      <trkpt lat="48.25553" lon="-2.96535">
        <ele>212</ele>
        <time>2011-05-29T16:02:08Z</time>
      </trkpt>
      <trkpt lat="48.25552" lon="-2.96527">
        <ele>212</ele>
        <time>2011-05-29T16:02:12Z</time>
      </trkpt>
      <trkpt lat="48.25539" lon="-2.96481">
        <ele>211</ele>
        <time>2011-05-29T16:02:40Z</time>
      </trkpt>
      <trkpt lat="48.25532" lon="-2.9648">
        <ele>211</ele>
        <time>2011-05-29T16:02:50Z</time>
      </trkpt>
      <trkpt lat="48.25528" lon="-2.9648">
        <ele>210</ele>
        <time>2011-05-29T16:03:05Z</time>
      </trkpt>
      <trkpt lat="48.25527" lon="-2.96487">
        <ele>210</ele>
        <time>2011-05-29T16:03:11Z</time>
      </trkpt>
      <trkpt lat="48.25532" lon="-2.96503">
        <ele>210</ele>
        <time>2011-05-29T16:03:27Z</time>
      </trkpt>
      <trkpt lat="48.25656" lon="-2.96608">
        <ele>181</ele>
        <time>2011-05-29T16:47:05Z</time>
      </trkpt>
      <trkpt lat="48.25692" lon="-2.96614">
        <ele>193</ele>
        <time>2011-05-29T16:47:58Z</time>
      </trkpt>
      <trkpt lat="48.25735" lon="-2.96639">
        <ele>194</ele>
        <time>2011-05-29T16:48:27Z</time>
      </trkpt>
      <trkpt lat="48.25766" lon="-2.96682">
        <ele>194</ele>
        <time>2011-05-29T16:48:58Z</time>
      </trkpt>
      <trkpt lat="48.25781" lon="-2.96732">
        <ele>194</ele>
        <time>2011-05-29T16:49:29Z</time>
      </trkpt>
      <trkpt lat="48.25767" lon="-2.96791">
        <ele>194</ele>
        <time>2011-05-29T16:50:00Z</time>
      </trkpt>
      <trkpt lat="48.25777" lon="-2.9684">
        <ele>193</ele>
        <time>2011-05-29T16:50:30Z</time>
      </trkpt>
      <trkpt lat="48.25805" lon="-2.96908">
        <ele>193</ele>
        <time>2011-05-29T16:51:15Z</time>
      </trkpt>
      <trkpt lat="48.25792" lon="-2.96942">
        <ele>193</ele>
        <time>2011-05-29T16:51:35Z</time>
      </trkpt>
      <trkpt lat="48.25769" lon="-2.96944">
        <ele>194</ele>
        <time>2011-05-29T16:51:51Z</time>
      </trkpt>
      <trkpt lat="48.25731" lon="-2.96934">
        <ele>195</ele>
        <time>2011-05-29T16:52:28Z</time>
      </trkpt>
      <trkpt lat="48.25716" lon="-2.96918">
        <ele>197</ele>
        <time>2011-05-29T16:52:48Z</time>
      </trkpt>
      <trkpt lat="48.25712" lon="-2.96891">
        <ele>198</ele>
        <time>2011-05-29T16:53:11Z</time>
      </trkpt>
      <trkpt lat="48.25717" lon="-2.96858">
        <ele>199</ele>
        <time>2011-05-29T16:53:30Z</time>
      </trkpt>
      <trkpt lat="48.25706" lon="-2.96802">
        <ele>203</ele>
        <time>2011-05-29T16:54:07Z</time>
      </trkpt>
      <trkpt lat="48.25699" lon="-2.96748">
        <ele>210</ele>
        <time>2011-05-29T16:54:42Z</time>
      </trkpt>
    </trkseg>
  </trk>
</gpx>